PWSweather.com
Personal Weather Stations
Station Observations
719732
Ponferrada, PonferradaES 24411

PonferradaPonferradaES 24411

Lat: 42.5728, Lon: -6.6425

Elevation: 1676

Station Type: PCE-FWS 20 con garita Ambient Weather SRS100LX

www.meteo.spyfly.es

High Low Average
Temperature 59.2°F15.1°C 42.1°F5.6°C 48.7°F9.3°C
Dew Point 48.0°F8.9°C 36.4°F2.4°C 41.5°F5.3°C
Winds 15.9 mph 25.6 kmh Calm Calm 4.0 mph SW6.4 kmh SW
Wind Gusts 28.2 mph45.4 kmh -- 9.0 mph14.5 kmh
Humidity 96% 46% 78%
Pressure 29.52 in999.7 mb 29.34 in993.6 mb -
Precipitation 0.05 in1.3 mm - -
Hour Temp Dew Point Humidity Winds Wind Gusts Pressure Precip Precip Rate Daily Precip Total
12:00 AM 51.1°F10.6°C 48.0°F8.9°C 89% 3.8 mph NNE6.1 kmh NNE 6.0 mph9.7 kmh 29.39 in995.3 mb 0.00 in0.0 mm 0.00 in0.0 mm 0.00 in0.0 mm
12:05 AM 51.1°F10.6°C 48.0°F8.9°C 89% 2.2 mph NE3.5 kmh NE 6.0 mph9.7 kmh 29.39 in995.3 mb 0.00 in0.0 mm 0.00 in0.0 mm 0.00 in0.0 mm
12:10 AM 51.1°F10.6°C 48.0°F8.9°C 89% 3.1 mph NE5.0 kmh NE 6.9 mph11.1 kmh 29.39 in995.3 mb 0.00 in0.0 mm 0.00 in0.0 mm 0.00 in0.0 mm
12:15 AM 51.1°F10.6°C 48.0°F8.9°C 89% 3.1 mph NE5.0 kmh NE 6.9 mph11.1 kmh 29.39 in995.3 mb 0.00 in0.0 mm 0.00 in0.0 mm 0.00 in0.0 mm
12:20 AM 51.1°F10.6°C 48.0°F8.9°C 89% 3.1 mph NE5.0 kmh NE 6.9 mph11.1 kmh 29.39 in995.3 mb 0.00 in0.0 mm 0.00 in0.0 mm 0.00 in0.0 mm
12:25 AM 51.1°F10.6°C 47.7°F8.7°C 88% 3.8 mph NE6.1 kmh NE 6.9 mph11.1 kmh 29.39 in995.3 mb 0.00 in0.0 mm 0.00 in0.0 mm 0.00 in0.0 mm
12:30 AM 51.1°F10.6°C 47.7°F8.7°C 88% 3.8 mph NE6.1 kmh NE 7.6 mph12.2 kmh 29.39 in995.3 mb 0.00 in0.0 mm 0.00 in0.0 mm 0.00 in0.0 mm
12:35 AM 51.1°F10.6°C 47.7°F8.7°C 88% 3.1 mph NE5.0 kmh NE 7.6 mph12.2 kmh 29.39 in995.3 mb 0.00 in0.0 mm 0.00 in0.0 mm 0.00 in0.0 mm
12:40 AM 51.1°F10.6°C 47.7°F8.7°C 88% 3.1 mph N5.0 kmh N 6.0 mph9.7 kmh 29.38 in994.9 mb 0.00 in0.0 mm 0.00 in0.0 mm 0.00 in0.0 mm
12:45 AM 50.9°F10.5°C 47.8°F8.8°C 89% 2.2 mph N3.5 kmh N 6.0 mph9.7 kmh 29.38 in994.9 mb 0.00 in0.0 mm 0.00 in0.0 mm 0.00 in0.0 mm
12:50 AM 50.9°F10.5°C 47.8°F8.8°C 89% 3.1 mph NNE5.0 kmh NNE 6.9 mph11.1 kmh 29.38 in994.9 mb 0.00 in0.0 mm 0.00 in0.0 mm 0.00 in0.0 mm
12:55 AM 50.7°F10.4°C 47.6°F8.7°C 89% 3.1 mph NNE5.0 kmh NNE 6.9 mph11.1 kmh 29.38 in994.9 mb 0.00 in0.0 mm 0.00 in0.0 mm 0.00 in0.0 mm
01:00 AM 50.7°F10.4°C 47.6°F8.7°C 89% 3.1 mph NNE5.0 kmh NNE 6.0 mph9.7 kmh 29.38 in994.9 mb 0.00 in0.0 mm 0.00 in0.0 mm 0.00 in0.0 mm
01:05 AM 50.7°F10.4°C 47.6°F8.7°C 89% 3.1 mph N5.0 kmh N 6.0 mph9.7 kmh 29.38 in994.9 mb 0.00 in0.0 mm 0.00 in0.0 mm 0.00 in0.0 mm
01:10 AM 50.7°F10.4°C 47.6°F8.7°C 89% 3.8 mph N6.1 kmh N 6.0 mph9.7 kmh 29.38 in994.9 mb 0.00 in0.0 mm 0.00 in0.0 mm 0.00 in0.0 mm
01:15 AM 50.7°F10.4°C 47.6°F8.7°C 89% 1.6 mph N2.6 kmh N 6.0 mph9.7 kmh 29.38 in994.9 mb 0.00 in0.0 mm 0.00 in0.0 mm 0.00 in0.0 mm
01:20 AM 50.7°F10.4°C 47.6°F8.7°C 89% 3.1 mph N5.0 kmh N 6.0 mph9.7 kmh 29.38 in994.9 mb 0.00 in0.0 mm 0.00 in0.0 mm 0.00 in0.0 mm
01:25 AM 50.7°F10.4°C 47.6°F8.7°C 89% 2.2 mph N3.5 kmh N 5.4 mph8.7 kmh 29.38 in994.9 mb 0.00 in0.0 mm 0.00 in0.0 mm 0.00 in0.0 mm
01:30 AM 50.7°F10.4°C 47.9°F8.8°C 90% 1.6 mph NW2.6 kmh NW 6.0 mph9.7 kmh 29.38 in994.9 mb 0.00 in0.0 mm 0.00 in0.0 mm 0.00 in0.0 mm
01:35 AM 50.5°F10.3°C 47.7°F8.7°C 90% 1.6 mph W2.6 kmh W 6.0 mph9.7 kmh 29.38 in994.9 mb 0.00 in0.0 mm 0.00 in0.0 mm 0.00 in0.0 mm
01:40 AM 50.5°F10.3°C 48.0°F8.9°C 91% 3.1 mph SSW5.0 kmh SSW 6.9 mph11.1 kmh 29.39 in995.3 mb 0.01 in0.3 mm 0.12 in3.0 mm 0.01 in0.3 mm
01:45 AM 50.5°F10.3°C 48.0°F8.9°C 91% 7.6 mph S12.2 kmh S 12.1 mph19.5 kmh 29.38 in994.9 mb 0.01 in0.3 mm 0.00 in0.0 mm 0.01 in0.3 mm
01:50 AM 50.7°F10.4°C 47.9°F8.8°C 90% 3.8 mph SW6.1 kmh SW 12.1 mph19.5 kmh 29.39 in995.3 mb 0.01 in0.3 mm 0.00 in0.0 mm 0.01 in0.3 mm
01:55 AM 50.5°F10.3°C 47.1°F8.4°C 88% 5.4 mph WSW8.7 kmh WSW 9.8 mph15.8 kmh 29.38 in994.9 mb 0.01 in0.3 mm 0.00 in0.0 mm 0.01 in0.3 mm
02:00 AM 50.4°F10.2°C 46.6°F8.1°C 87% 6.0 mph W9.7 kmh W 12.1 mph19.5 kmh 29.37 in994.6 mb 0.01 in0.3 mm 0.00 in0.0 mm 0.01 in0.3 mm
02:05 AM 50.2°F10.1°C 46.2°F7.9°C 86% 6.9 mph WNW11.1 kmh WNW 12.1 mph19.5 kmh 29.37 in994.6 mb 0.01 in0.3 mm 0.00 in0.0 mm 0.01 in0.3 mm
02:10 AM 49.6°F9.8°C 45.6°F7.6°C 86% 4.5 mph WNW7.2 kmh WNW 12.1 mph19.5 kmh 29.38 in994.9 mb 0.01 in0.3 mm 0.00 in0.0 mm 0.01 in0.3 mm
02:15 AM 49.3°F9.6°C 45.6°F7.6°C 87% 5.4 mph W8.7 kmh W 12.1 mph19.5 kmh 29.38 in994.9 mb 0.01 in0.3 mm 0.00 in0.0 mm 0.01 in0.3 mm
02:20 AM 48.9°F9.4°C 45.2°F7.3°C 87% 4.5 mph WNW7.2 kmh WNW 10.7 mph17.2 kmh 29.38 in994.9 mb 0.01 in0.3 mm 0.00 in0.0 mm 0.01 in0.3 mm
02:25 AM 48.7°F9.3°C 45.3°F7.4°C 88% 5.4 mph W8.7 kmh W 8.3 mph13.4 kmh 29.37 in994.6 mb 0.01 in0.3 mm 0.00 in0.0 mm 0.01 in0.3 mm
02:30 AM 48.6°F9.2°C 45.2°F7.3°C 88% 3.8 mph W6.1 kmh W 8.3 mph13.4 kmh 29.37 in994.6 mb 0.01 in0.3 mm 0.00 in0.0 mm 0.01 in0.3 mm
02:35 AM 48.4°F9.1°C 45.0°F7.2°C 88% 1.6 mph WNW2.6 kmh WNW 8.3 mph13.4 kmh 29.37 in994.6 mb 0.01 in0.3 mm 0.00 in0.0 mm 0.01 in0.3 mm
02:40 AM 48.2°F9.0°C 45.1°F7.3°C 89% 2.2 mph WNW3.5 kmh WNW 6.9 mph11.1 kmh 29.37 in994.6 mb 0.00 in0.0 mm 0.00 in0.0 mm 0.01 in0.3 mm
02:50 AM 48.0°F8.9°C 45.2°F7.3°C 90% 2.2 mph NW3.5 kmh NW 4.5 mph7.2 kmh 29.37 in994.6 mb 0.00 in0.0 mm 0.00 in0.0 mm 0.01 in0.3 mm
02:55 AM 47.8°F8.8°C 45.3°F7.4°C 91% 4.5 mph NW7.2 kmh NW 6.0 mph9.7 kmh 29.36 in994.2 mb 0.00 in0.0 mm 0.00 in0.0 mm 0.01 in0.3 mm
03:00 AM 47.8°F8.8°C 45.3°F7.4°C 91% 3.1 mph NW5.0 kmh NW 7.6 mph12.2 kmh 29.37 in994.6 mb 0.00 in0.0 mm 0.00 in0.0 mm 0.01 in0.3 mm
03:05 AM 47.8°F8.8°C 45.3°F7.4°C 91% 3.1 mph NW5.0 kmh NW 7.6 mph12.2 kmh 29.37 in994.6 mb 0.00 in0.0 mm 0.00 in0.0 mm 0.01 in0.3 mm
03:10 AM 47.5°F8.6°C 45.0°F7.2°C 91% 1.6 mph NW2.6 kmh NW 5.4 mph8.7 kmh 29.36 in994.2 mb 0.00 in0.0 mm 0.00 in0.0 mm 0.01 in0.3 mm
03:15 AM 47.5°F8.6°C 45.0°F7.2°C 91% 1.6 mph NW2.6 kmh NW 5.4 mph8.7 kmh 29.36 in994.2 mb 0.00 in0.0 mm 0.00 in0.0 mm 0.01 in0.3 mm
03:20 AM 47.3°F8.5°C 44.8°F7.1°C 91% 0.7 mph N1.1 kmh N 3.1 mph5.0 kmh 29.36 in994.2 mb 0.00 in0.0 mm 0.00 in0.0 mm 0.01 in0.3 mm
03:25 AM 47.1°F8.4°C 44.6°F7.0°C 91% 2.2 mph N3.5 kmh N 3.8 mph6.1 kmh 29.36 in994.2 mb 0.00 in0.0 mm 0.00 in0.0 mm 0.01 in0.3 mm
03:30 AM 47.1°F8.4°C 44.6°F7.0°C 91% 0.7 mph NW1.1 kmh NW 4.5 mph7.2 kmh 29.36 in994.2 mb 0.00 in0.0 mm 0.00 in0.0 mm 0.01 in0.3 mm
03:35 AM 47.1°F8.4°C 44.6°F7.0°C 91% 1.6 mph WNW2.6 kmh WNW 4.5 mph7.2 kmh 29.36 in994.2 mb 0.00 in0.0 mm 0.00 in0.0 mm 0.01 in0.3 mm
03:40 AM 47.1°F8.4°C 44.9°F7.2°C 92% 1.6 mph NW2.6 kmh NW 3.8 mph6.1 kmh 29.35 in993.9 mb 0.00 in0.0 mm 0.00 in0.0 mm 0.01 in0.3 mm
03:45 AM 46.9°F8.3°C 44.7°F7.1°C 92% 1.6 mph N2.6 kmh N 3.8 mph6.1 kmh 29.35 in993.9 mb 0.00 in0.0 mm 0.00 in0.0 mm 0.01 in0.3 mm
03:50 AM 46.9°F8.3°C 44.7°F7.1°C 92% 2.2 mph ENE3.5 kmh ENE 3.1 mph5.0 kmh 29.36 in994.2 mb 0.00 in0.0 mm 0.00 in0.0 mm 0.01 in0.3 mm
03:55 AM 46.9°F8.3°C 44.7°F7.1°C 92% 2.2 mph E3.5 kmh E 4.5 mph7.2 kmh 29.36 in994.2 mb 0.00 in0.0 mm 0.00 in0.0 mm 0.01 in0.3 mm
04:00 AM 47.1°F8.4°C 44.9°F7.2°C 92% 2.2 mph ESE3.5 kmh ESE 4.5 mph7.2 kmh 29.36 in994.2 mb 0.00 in0.0 mm 0.00 in0.0 mm 0.01 in0.3 mm
04:05 AM 47.1°F8.4°C 44.9°F7.2°C 92% 0.7 mph ESE1.1 kmh ESE 3.8 mph6.1 kmh 29.36 in994.2 mb 0.00 in0.0 mm 0.00 in0.0 mm 0.01 in0.3 mm
04:10 AM 46.9°F8.3°C 44.7°F7.1°C 92% 0.7 mph SE1.1 kmh SE 3.1 mph5.0 kmh 29.36 in994.2 mb 0.00 in0.0 mm 0.00 in0.0 mm 0.01 in0.3 mm
04:15 AM 46.9°F8.3°C 45.0°F7.2°C 93% Calm Calm 3.1 mph5.0 kmh 29.36 in994.2 mb 0.00 in0.0 mm 0.00 in0.0 mm 0.01 in0.3 mm
04:20 AM 46.9°F8.3°C 45.0°F7.2°C 93% 1.6 mph SE2.6 kmh SE 2.2 mph3.5 kmh 29.36 in994.2 mb 0.00 in0.0 mm 0.00 in0.0 mm 0.01 in0.3 mm
04:25 AM 47.1°F8.4°C 45.2°F7.3°C 93% 1.6 mph SW2.6 kmh SW 2.2 mph3.5 kmh 29.36 in994.2 mb 0.00 in0.0 mm 0.00 in0.0 mm 0.01 in0.3 mm
04:30 AM 47.1°F8.4°C 45.2°F7.3°C 93% Calm Calm 2.2 mph3.5 kmh 29.36 in994.2 mb 0.00 in0.0 mm 0.00 in0.0 mm 0.01 in0.3 mm
04:35 AM 47.1°F8.4°C 45.5°F7.5°C 94% 2.2 mph S3.5 kmh S 3.1 mph5.0 kmh 29.36 in994.2 mb 0.00 in0.0 mm 0.00 in0.0 mm 0.01 in0.3 mm
04:40 AM 46.9°F8.3°C 45.3°F7.4°C 94% 1.6 mph S2.6 kmh S 3.1 mph5.0 kmh 29.35 in993.9 mb 0.00 in0.0 mm 0.00 in0.0 mm 0.01 in0.3 mm
04:45 AM 46.9°F8.3°C 45.3°F7.4°C 94% Calm Calm 3.1 mph5.0 kmh 29.36 in994.2 mb 0.01 in0.3 mm 0.12 in3.0 mm 0.02 in0.5 mm
04:50 AM 46.9°F8.3°C 45.3°F7.4°C 94% Calm Calm 4.5 mph7.2 kmh 29.36 in994.2 mb 0.01 in0.3 mm 0.00 in0.0 mm 0.02 in0.5 mm
04:55 AM 46.8°F8.2°C 45.1°F7.3°C 94% 0.7 mph WSW1.1 kmh WSW 4.5 mph7.2 kmh 29.36 in994.2 mb 0.01 in0.3 mm 0.00 in0.0 mm 0.02 in0.5 mm
05:00 AM 46.6°F8.1°C 45.2°F7.3°C 95% 0.7 mph W1.1 kmh W 4.5 mph7.2 kmh 29.35 in993.9 mb 0.01 in0.3 mm 0.00 in0.0 mm 0.02 in0.5 mm
05:05 AM 46.6°F8.1°C 45.2°F7.3°C 95% 0.7 mph W1.1 kmh W 3.8 mph6.1 kmh 29.35 in993.9 mb 0.01 in0.3 mm 0.00 in0.0 mm 0.02 in0.5 mm
05:10 AM 46.6°F8.1°C 45.2°F7.3°C 95% 2.2 mph WSW3.5 kmh WSW 3.8 mph6.1 kmh 29.35 in993.9 mb 0.01 in0.3 mm 0.00 in0.0 mm 0.02 in0.5 mm
05:15 AM 46.4°F8.0°C 45.0°F7.2°C 95% 0.7 mph WSW1.1 kmh WSW 3.8 mph6.1 kmh 29.34 in993.6 mb 0.01 in0.3 mm 0.00 in0.0 mm 0.02 in0.5 mm
05:20 AM 46.4°F8.0°C 45.3°F7.4°C 96% 2.2 mph WSW3.5 kmh WSW 3.8 mph6.1 kmh 29.35 in993.9 mb 0.01 in0.3 mm 0.00 in0.0 mm 0.02 in0.5 mm
05:25 AM 46.4°F8.0°C 45.3°F7.4°C 96% 1.6 mph W2.6 kmh W 4.5 mph7.2 kmh 29.35 in993.9 mb 0.01 in0.3 mm 0.00 in0.0 mm 0.02 in0.5 mm
05:30 AM 46.2°F7.9°C 45.1°F7.3°C 96% 1.6 mph W2.6 kmh W 4.5 mph7.2 kmh 29.35 in993.9 mb 0.01 in0.3 mm 0.00 in0.0 mm 0.02 in0.5 mm
05:35 AM 46.2°F7.9°C 45.1°F7.3°C 96% 2.2 mph W3.5 kmh W 4.5 mph7.2 kmh 29.35 in993.9 mb 0.01 in0.3 mm 0.00 in0.0 mm 0.02 in0.5 mm
05:40 AM 46.0°F7.8°C 45.0°F7.2°C 96% 2.2 mph W3.5 kmh W 4.5 mph7.2 kmh 29.35 in993.9 mb 0.00 in0.0 mm 0.00 in0.0 mm 0.02 in0.5 mm
05:45 AM 46.0°F7.8°C 45.0°F7.2°C 96% 2.2 mph WNW3.5 kmh WNW 3.8 mph6.1 kmh 29.35 in993.9 mb 0.00 in0.0 mm 0.00 in0.0 mm 0.02 in0.5 mm
05:50 AM 45.9°F7.7°C 44.8°F7.1°C 96% 3.1 mph WNW5.0 kmh WNW 5.4 mph8.7 kmh 29.35 in993.9 mb 0.00 in0.0 mm 0.00 in0.0 mm 0.02 in0.5 mm
05:55 AM 45.7°F7.6°C 44.6°F7.0°C 96% 5.4 mph W8.7 kmh W 7.6 mph12.2 kmh 29.35 in993.9 mb 0.00 in0.0 mm 0.00 in0.0 mm 0.02 in0.5 mm
06:00 AM 45.5°F7.5°C 44.2°F6.8°C 95% 2.2 mph W3.5 kmh W 7.6 mph12.2 kmh 29.35 in993.9 mb 0.00 in0.0 mm 0.00 in0.0 mm 0.02 in0.5 mm
06:05 AM 45.3°F7.4°C 43.7°F6.5°C 94% 3.8 mph W6.1 kmh W 7.6 mph12.2 kmh 29.35 in993.9 mb 0.00 in0.0 mm 0.00 in0.0 mm 0.02 in0.5 mm
06:10 AM 45.1°F7.3°C 43.5°F6.4°C 94% 3.1 mph WNW5.0 kmh WNW 6.0 mph9.7 kmh 29.34 in993.6 mb 0.00 in0.0 mm 0.00 in0.0 mm 0.02 in0.5 mm
06:15 AM 45.0°F7.2°C 43.1°F6.2°C 93% 4.5 mph WNW7.2 kmh WNW 6.0 mph9.7 kmh 29.35 in993.9 mb 0.00 in0.0 mm 0.00 in0.0 mm 0.02 in0.5 mm
06:20 AM 44.8°F7.1°C 42.9°F6.1°C 93% 3.1 mph WNW5.0 kmh WNW 6.0 mph9.7 kmh 29.35 in993.9 mb 0.00 in0.0 mm 0.00 in0.0 mm 0.02 in0.5 mm
06:25 AM 44.8°F7.1°C 42.9°F6.1°C 93% 1.6 mph WNW2.6 kmh WNW 6.0 mph9.7 kmh 29.35 in993.9 mb 0.00 in0.0 mm 0.00 in0.0 mm 0.02 in0.5 mm
06:30 AM 44.6°F7.0°C 42.4°F5.8°C 92% 0.7 mph NW1.1 kmh NW 4.5 mph7.2 kmh 29.35 in993.9 mb 0.00 in0.0 mm 0.00 in0.0 mm 0.02 in0.5 mm
06:35 AM 44.6°F7.0°C 42.4°F5.8°C 92% 5.4 mph NW8.7 kmh NW 7.6 mph12.2 kmh 29.35 in993.9 mb 0.00 in0.0 mm 0.00 in0.0 mm 0.02 in0.5 mm
06:40 AM 44.6°F7.0°C 42.1°F5.6°C 91% 1.6 mph N2.6 kmh N 7.6 mph12.2 kmh 29.35 in993.9 mb 0.00 in0.0 mm 0.00 in0.0 mm 0.02 in0.5 mm
06:45 AM 44.4°F6.9°C 42.2°F5.7°C 92% 3.1 mph NNE5.0 kmh NNE 7.6 mph12.2 kmh 29.35 in993.9 mb 0.00 in0.0 mm 0.00 in0.0 mm 0.02 in0.5 mm
06:50 AM 44.4°F6.9°C 42.0°F5.6°C 91% 3.1 mph NNE5.0 kmh NNE 3.8 mph6.1 kmh 29.35 in993.9 mb 0.00 in0.0 mm 0.00 in0.0 mm 0.02 in0.5 mm
06:55 AM 44.4°F6.9°C 42.0°F5.6°C 91% 1.6 mph NNW2.6 kmh NNW 3.8 mph6.1 kmh 29.36 in994.2 mb 0.00 in0.0 mm 0.00 in0.0 mm 0.02 in0.5 mm
07:00 AM 44.6°F7.0°C 41.6°F5.3°C 89% 1.6 mph W2.6 kmh W 3.8 mph6.1 kmh 29.36 in994.2 mb 0.00 in0.0 mm 0.00 in0.0 mm 0.02 in0.5 mm
07:05 AM 44.6°F7.0°C 41.6°F5.3°C 89% 1.6 mph W2.6 kmh W 3.1 mph5.0 kmh 29.36 in994.2 mb 0.00 in0.0 mm 0.00 in0.0 mm 0.02 in0.5 mm
07:10 AM 45.0°F7.2°C 41.6°F5.3°C 88% 1.6 mph WSW2.6 kmh WSW 3.8 mph6.1 kmh 29.36 in994.2 mb 0.00 in0.0 mm 0.00 in0.0 mm 0.02 in0.5 mm
07:15 AM 45.3°F7.4°C 42.0°F5.6°C 88% 0.7 mph SW1.1 kmh SW 3.8 mph6.1 kmh 29.36 in994.2 mb 0.00 in0.0 mm 0.00 in0.0 mm 0.02 in0.5 mm
07:20 AM 45.5°F7.5°C 42.2°F5.7°C 88% Calm Calm 3.8 mph6.1 kmh 29.36 in994.2 mb 0.00 in0.0 mm 0.00 in0.0 mm 0.02 in0.5 mm
07:25 AM 45.7°F7.6°C 42.0°F5.6°C 87% 1.6 mph E2.6 kmh E 3.1 mph5.0 kmh 29.37 in994.6 mb 0.00 in0.0 mm 0.00 in0.0 mm 0.02 in0.5 mm
07:30 AM 45.9°F7.7°C 42.2°F5.7°C 87% 3.1 mph N5.0 kmh N 4.5 mph7.2 kmh 29.36 in994.2 mb 0.00 in0.0 mm 0.00 in0.0 mm 0.02 in0.5 mm
07:35 AM 45.9°F7.7°C 42.2°F5.7°C 87% 2.2 mph NW3.5 kmh NW 4.5 mph7.2 kmh 29.37 in994.6 mb 0.00 in0.0 mm 0.00 in0.0 mm 0.02 in0.5 mm
07:40 AM 45.9°F7.7°C 42.5°F5.8°C 88% 0.7 mph NW1.1 kmh NW 3.8 mph6.1 kmh 29.37 in994.6 mb 0.00 in0.0 mm 0.00 in0.0 mm 0.02 in0.5 mm
07:45 AM 45.9°F7.7°C 42.5°F5.8°C 88% 2.2 mph NW3.5 kmh NW 3.1 mph5.0 kmh 29.37 in994.6 mb 0.00 in0.0 mm 0.00 in0.0 mm 0.02 in0.5 mm
07:50 AM 46.0°F7.8°C 42.7°F5.9°C 88% 3.8 mph NW6.1 kmh NW 4.5 mph7.2 kmh 29.37 in994.6 mb 0.00 in0.0 mm 0.00 in0.0 mm 0.02 in0.5 mm
07:55 AM 46.2°F7.9°C 42.9°F6.1°C 88% 3.1 mph NW5.0 kmh NW 5.4 mph8.7 kmh 29.37 in994.6 mb 0.00 in0.0 mm 0.00 in0.0 mm 0.02 in0.5 mm
08:00 AM 46.2°F7.9°C 42.9°F6.1°C 88% 3.1 mph NW5.0 kmh NW 6.0 mph9.7 kmh 29.37 in994.6 mb 0.00 in0.0 mm 0.00 in0.0 mm 0.02 in0.5 mm
08:05 AM 46.2°F7.9°C 42.6°F5.9°C 87% 4.5 mph NW7.2 kmh NW 7.6 mph12.2 kmh 29.37 in994.6 mb 0.00 in0.0 mm 0.00 in0.0 mm 0.02 in0.5 mm
08:10 AM 46.0°F7.8°C 42.1°F5.6°C 86% 3.8 mph NW6.1 kmh NW 8.3 mph13.4 kmh 29.38 in994.9 mb 0.00 in0.0 mm 0.00 in0.0 mm 0.02 in0.5 mm
08:15 AM 45.9°F7.7°C 41.6°F5.3°C 85% 5.4 mph WNW8.7 kmh WNW 8.3 mph13.4 kmh 29.38 in994.9 mb 0.00 in0.0 mm 0.00 in0.0 mm 0.02 in0.5 mm
08:20 AM 45.9°F7.7°C 41.3°F5.2°C 84% 4.5 mph NW7.2 kmh NW 9.2 mph14.8 kmh 29.38 in994.9 mb 0.00 in0.0 mm 0.00 in0.0 mm 0.02 in0.5 mm
08:25 AM 45.9°F7.7°C 41.0°F5.0°C 83% 4.5 mph WNW7.2 kmh WNW 9.8 mph15.8 kmh 29.38 in994.9 mb 0.00 in0.0 mm 0.00 in0.0 mm 0.02 in0.5 mm
08:30 AM 45.9°F7.7°C 40.4°F4.7°C 81% 1.6 mph WNW2.6 kmh WNW 9.8 mph15.8 kmh 29.38 in994.9 mb 0.00 in0.0 mm 0.00 in0.0 mm 0.02 in0.5 mm
08:35 AM 46.0°F7.8°C 40.2°F4.6°C 80% 3.1 mph WNW5.0 kmh WNW 8.3 mph13.4 kmh 29.38 in994.9 mb 0.00 in0.0 mm 0.00 in0.0 mm 0.02 in0.5 mm
08:40 AM 47.3°F8.5°C 41.1°F5.1°C 79% 4.5 mph WNW7.2 kmh WNW 9.2 mph14.8 kmh 29.38 in994.9 mb 0.00 in0.0 mm 0.00 in0.0 mm 0.02 in0.5 mm
08:45 AM 48.2°F9.0°C 41.0°F5.0°C 76% 2.2 mph W3.5 kmh W 9.2 mph14.8 kmh 29.37 in994.6 mb 0.00 in0.0 mm 0.00 in0.0 mm 0.02 in0.5 mm
08:50 AM 49.1°F9.5°C 41.2°F5.1°C 74% 4.5 mph W7.2 kmh W 8.3 mph13.4 kmh 29.38 in994.9 mb 0.00 in0.0 mm 0.00 in0.0 mm 0.02 in0.5 mm
08:55 AM 50.0°F10.0°C 41.7°F5.4°C 73% 6.0 mph W9.7 kmh W 8.3 mph13.4 kmh 29.38 in994.9 mb 0.00 in0.0 mm 0.00 in0.0 mm 0.02 in0.5 mm
09:00 AM 50.4°F10.2°C 41.7°F5.4°C 72% 3.8 mph NW6.1 kmh NW 8.3 mph13.4 kmh 29.38 in994.9 mb 0.00 in0.0 mm 0.00 in0.0 mm 0.02 in0.5 mm
09:05 AM 50.9°F10.5°C 41.1°F5.1°C 69% 3.8 mph NW6.1 kmh NW 8.3 mph13.4 kmh 29.37 in994.6 mb 0.00 in0.0 mm 0.00 in0.0 mm 0.02 in0.5 mm
09:10 AM 51.4°F10.8°C 41.2°F5.1°C 68% 3.1 mph WNW5.0 kmh WNW 7.6 mph12.2 kmh 29.38 in994.9 mb 0.00 in0.0 mm 0.00 in0.0 mm 0.02 in0.5 mm
09:15 AM 51.8°F11.0°C 40.4°F4.7°C 65% 1.6 mph WNW2.6 kmh WNW 7.6 mph12.2 kmh 29.38 in994.9 mb 0.00 in0.0 mm 0.00 in0.0 mm 0.02 in0.5 mm
09:20 AM 52.0°F11.1°C 40.6°F4.8°C 65% 2.2 mph WNW3.5 kmh WNW 7.6 mph12.2 kmh 29.38 in994.9 mb 0.00 in0.0 mm 0.00 in0.0 mm 0.02 in0.5 mm
09:25 AM 52.5°F11.4°C 40.3°F4.6°C 63% 3.8 mph WSW6.1 kmh WSW 8.3 mph13.4 kmh 29.38 in994.9 mb 0.00 in0.0 mm 0.00 in0.0 mm 0.02 in0.5 mm
09:30 AM 52.0°F11.1°C 39.8°F4.3°C 63% 5.4 mph WSW8.7 kmh WSW 11.4 mph18.3 kmh 29.38 in994.9 mb 0.00 in0.0 mm 0.00 in0.0 mm 0.02 in0.5 mm
09:35 AM 51.3°F10.7°C 39.5°F4.2°C 64% 3.8 mph W6.1 kmh W 11.4 mph18.3 kmh 29.37 in994.6 mb 0.00 in0.0 mm 0.00 in0.0 mm 0.02 in0.5 mm
09:40 AM 50.9°F10.5°C 39.2°F4.0°C 64% 5.4 mph WNW8.7 kmh WNW 10.7 mph17.2 kmh 29.38 in994.9 mb 0.00 in0.0 mm 0.00 in0.0 mm 0.02 in0.5 mm
09:45 AM 50.7°F10.4°C 38.6°F3.7°C 63% 6.0 mph NW9.7 kmh NW 10.7 mph17.2 kmh 29.38 in994.9 mb 0.00 in0.0 mm 0.00 in0.0 mm 0.02 in0.5 mm
09:50 AM 50.7°F10.4°C 38.6°F3.7°C 63% 3.8 mph W6.1 kmh W 10.7 mph17.2 kmh 29.38 in994.9 mb 0.00 in0.0 mm 0.00 in0.0 mm 0.02 in0.5 mm
09:55 AM 51.4°F10.8°C 39.3°F4.1°C 63% 6.0 mph W9.7 kmh W 10.7 mph17.2 kmh 29.38 in994.9 mb 0.00 in0.0 mm 0.00 in0.0 mm 0.02 in0.5 mm
10:00 AM 51.4°F10.8°C 39.7°F4.3°C 64% 6.9 mph WNW11.1 kmh WNW 11.4 mph18.3 kmh 29.38 in994.9 mb 0.00 in0.0 mm 0.00 in0.0 mm 0.02 in0.5 mm
10:05 AM 51.3°F10.7°C 39.5°F4.2°C 64% 8.3 mph NW13.4 kmh NW 11.4 mph18.3 kmh 29.38 in994.9 mb 0.00 in0.0 mm 0.00 in0.0 mm 0.02 in0.5 mm
10:10 AM 51.3°F10.7°C 39.1°F3.9°C 63% 3.1 mph WNW5.0 kmh WNW 11.4 mph18.3 kmh 29.38 in994.9 mb 0.00 in0.0 mm 0.00 in0.0 mm 0.02 in0.5 mm
10:15 AM 51.8°F11.0°C 39.2°F4.0°C 62% 4.5 mph WNW7.2 kmh WNW 11.4 mph18.3 kmh 29.38 in994.9 mb 0.00 in0.0 mm 0.00 in0.0 mm 0.02 in0.5 mm
10:20 AM 52.7°F11.5°C 39.6°F4.2°C 61% 3.8 mph WNW6.1 kmh WNW 11.4 mph18.3 kmh 29.38 in994.9 mb 0.00 in0.0 mm 0.00 in0.0 mm 0.02 in0.5 mm
10:25 AM 53.6°F12.0°C 39.2°F4.0°C 58% 6.0 mph W9.7 kmh W 11.4 mph18.3 kmh 29.38 in994.9 mb 0.00 in0.0 mm 0.00 in0.0 mm 0.02 in0.5 mm
10:30 AM 53.6°F12.0°C 39.6°F4.2°C 59% 3.8 mph W6.1 kmh W 10.7 mph17.2 kmh 29.38 in994.9 mb 0.00 in0.0 mm 0.00 in0.0 mm 0.02 in0.5 mm
10:35 AM 54.5°F12.5°C 39.6°F4.2°C 57% 9.2 mph NW14.8 kmh NW 15.2 mph24.5 kmh 29.38 in994.9 mb 0.00 in0.0 mm 0.00 in0.0 mm 0.02 in0.5 mm
10:40 AM 55.4°F13.0°C 39.5°F4.2°C 55% 6.0 mph WNW9.7 kmh WNW 15.2 mph24.5 kmh 29.38 in994.9 mb 0.00 in0.0 mm 0.00 in0.0 mm 0.02 in0.5 mm
10:45 AM 55.8°F13.2°C 38.4°F3.6°C 52% 9.2 mph WSW14.8 kmh WSW 16.8 mph27.0 kmh 29.38 in994.9 mb 0.00 in0.0 mm 0.00 in0.0 mm 0.02 in0.5 mm
10:50 AM 55.8°F13.2°C 37.9°F3.3°C 51% 8.3 mph W13.4 kmh W 16.8 mph27.0 kmh 29.39 in995.3 mb 0.00 in0.0 mm 0.00 in0.0 mm 0.02 in0.5 mm
10:55 AM 55.6°F13.1°C 36.7°F2.6°C 49% 3.8 mph WSW6.1 kmh WSW 15.2 mph24.5 kmh 29.38 in994.9 mb 0.00 in0.0 mm 0.00 in0.0 mm 0.02 in0.5 mm
11:00 AM 56.1°F13.4°C 37.7°F3.2°C 50% 5.4 mph WSW8.7 kmh WSW 16.8 mph27.0 kmh 29.39 in995.3 mb 0.02 in0.5 mm 0.02 in0.5 mm 0.05 in1.3 mm
11:05 AM 55.2°F12.9°C 37.4°F3.0°C 51% 8.3 mph W13.4 kmh W 16.8 mph27.0 kmh 29.39 in995.3 mb 0.02 in0.5 mm 0.00 in0.0 mm 0.05 in1.3 mm
11:10 AM 54.1°F12.3°C 36.4°F2.4°C 51% 6.0 mph WNW9.7 kmh WNW 16.8 mph27.0 kmh 29.38 in994.9 mb 0.02 in0.5 mm 0.00 in0.0 mm 0.05 in1.3 mm
11:15 AM 55.0°F12.8°C 37.7°F3.2°C 52% 8.3 mph NW13.4 kmh NW 16.8 mph27.0 kmh 29.38 in994.9 mb 0.02 in0.5 mm 0.00 in0.0 mm 0.05 in1.3 mm
11:20 AM 55.8°F13.2°C 38.9°F3.8°C 53% 3.8 mph WNW6.1 kmh WNW 14.5 mph23.3 kmh 29.38 in994.9 mb 0.02 in0.5 mm 0.00 in0.0 mm 0.05 in1.3 mm
11:25 AM 56.1°F13.4°C 39.7°F4.3°C 54% 7.6 mph WNW12.2 kmh WNW 14.5 mph23.3 kmh 29.38 in994.9 mb 0.02 in0.5 mm 0.00 in0.0 mm 0.05 in1.3 mm
11:30 AM 56.7°F13.7°C 39.7°F4.3°C 53% 9.2 mph WNW14.8 kmh WNW 18.3 mph29.5 kmh 29.39 in995.3 mb 0.02 in0.5 mm 0.00 in0.0 mm 0.05 in1.3 mm
11:35 AM 56.8°F13.8°C 39.4°F4.1°C 52% 4.5 mph WNW7.2 kmh WNW 18.3 mph29.5 kmh 29.38 in994.9 mb 0.02 in0.5 mm 0.00 in0.0 mm 0.05 in1.3 mm
11:40 AM 57.2°F14.0°C 39.7°F4.3°C 52% 4.5 mph WNW7.2 kmh WNW 13.6 mph21.9 kmh 29.38 in994.9 mb 0.02 in0.5 mm 0.00 in0.0 mm 0.05 in1.3 mm
11:45 AM 57.9°F14.4°C 40.4°F4.7°C 52% 8.3 mph NW13.4 kmh NW 12.1 mph19.5 kmh 29.38 in994.9 mb 0.02 in0.5 mm 0.00 in0.0 mm 0.05 in1.3 mm
11:50 AM 57.9°F14.4°C 39.4°F4.1°C 50% 9.2 mph WNW14.8 kmh WNW 14.5 mph23.3 kmh 29.38 in994.9 mb 0.02 in0.5 mm 0.00 in0.0 mm 0.05 in1.3 mm
11:55 AM 58.1°F14.5°C 40.6°F4.8°C 52% 10.7 mph WNW17.2 kmh WNW 14.5 mph23.3 kmh 29.38 in994.9 mb 0.02 in0.5 mm 0.00 in0.0 mm 0.05 in1.3 mm
12:00 PM 57.9°F14.4°C 39.4°F4.1°C 50% 7.6 mph NW12.2 kmh NW 14.5 mph23.3 kmh 29.38 in994.9 mb 0.00 in0.0 mm 0.00 in0.0 mm 0.05 in1.3 mm
12:05 PM 58.1°F14.5°C 39.1°F3.9°C 49% 9.2 mph NW14.8 kmh NW 16.8 mph27.0 kmh 29.38 in994.9 mb 0.00 in0.0 mm 0.00 in0.0 mm 0.05 in1.3 mm
12:10 PM 57.7°F14.3°C 38.2°F3.4°C 48% 9.2 mph WNW14.8 kmh WNW 16.8 mph27.0 kmh 29.38 in994.9 mb 0.00 in0.0 mm 0.00 in0.0 mm 0.05 in1.3 mm
12:15 PM 56.3°F13.5°C 37.9°F3.3°C 50% 5.4 mph WNW8.7 kmh WNW 16.8 mph27.0 kmh 29.38 in994.9 mb 0.00 in0.0 mm 0.00 in0.0 mm 0.05 in1.3 mm
12:20 PM 55.6°F13.1°C 37.8°F3.2°C 51% 3.1 mph W5.0 kmh W 14.5 mph23.3 kmh 29.38 in994.9 mb 0.00 in0.0 mm 0.00 in0.0 mm 0.05 in1.3 mm
12:25 PM 55.4°F13.0°C 36.6°F2.6°C 49% 6.0 mph WSW9.7 kmh WSW 16.8 mph27.0 kmh 29.38 in994.9 mb 0.00 in0.0 mm 0.00 in0.0 mm 0.05 in1.3 mm
12:30 PM 56.5°F13.6°C 38.1°F3.4°C 50% 6.0 mph SW9.7 kmh SW 16.8 mph27.0 kmh 29.38 in994.9 mb 0.00 in0.0 mm 0.00 in0.0 mm 0.05 in1.3 mm
12:35 PM 58.5°F14.7°C 39.9°F4.4°C 50% 9.2 mph SW14.8 kmh SW 11.4 mph18.3 kmh 29.37 in994.6 mb 0.00 in0.0 mm 0.00 in0.0 mm 0.05 in1.3 mm
12:40 PM 59.2°F15.1°C 38.4°F3.6°C 46% 3.8 mph WSW6.1 kmh WSW 12.1 mph19.5 kmh 29.37 in994.6 mb 0.00 in0.0 mm 0.00 in0.0 mm 0.05 in1.3 mm
12:45 PM 58.6°F14.8°C 39.0°F3.9°C 48% 4.5 mph NW7.2 kmh NW 13.0 mph20.9 kmh 29.37 in994.6 mb 0.00 in0.0 mm 0.00 in0.0 mm 0.05 in1.3 mm
12:50 PM 58.1°F14.5°C 39.1°F3.9°C 49% 6.0 mph NW9.7 kmh NW 13.0 mph20.9 kmh 29.38 in994.9 mb 0.00 in0.0 mm 0.00 in0.0 mm 0.05 in1.3 mm
12:55 PM 58.8°F14.9°C 40.2°F4.6°C 50% 6.9 mph NW11.1 kmh NW 13.0 mph20.9 kmh 29.37 in994.6 mb 0.00 in0.0 mm 0.00 in0.0 mm 0.05 in1.3 mm
01:00 PM 58.3°F14.6°C 37.6°F3.1°C 46% 11.4 mph WNW18.3 kmh WNW 17.4 mph28.0 kmh 29.37 in994.6 mb 0.00 in0.0 mm 0.00 in0.0 mm 0.05 in1.3 mm
01:05 PM 57.2°F14.0°C 38.2°F3.4°C 49% 9.8 mph WNW15.8 kmh WNW 20.6 mph33.2 kmh 29.38 in994.9 mb 0.00 in0.0 mm 0.00 in0.0 mm 0.05 in1.3 mm
01:10 PM 55.9°F13.3°C 38.6°F3.7°C 52% 13.0 mph WNW20.9 kmh WNW 22.8 mph36.7 kmh 29.38 in994.9 mb 0.00 in0.0 mm 0.00 in0.0 mm 0.05 in1.3 mm
01:15 PM 55.2°F12.9°C 39.3°F4.1°C 55% 12.1 mph NW19.5 kmh NW 28.2 mph45.4 kmh 29.39 in995.3 mb 0.00 in0.0 mm 0.00 in0.0 mm 0.05 in1.3 mm
01:20 PM 54.3°F12.4°C 40.3°F4.6°C 59% 8.3 mph WNW13.4 kmh WNW 28.2 mph45.4 kmh 29.40 in995.6 mb 0.00 in0.0 mm 0.00 in0.0 mm 0.05 in1.3 mm
01:25 PM 52.2°F11.2°C 40.8°F4.9°C 65% 15.9 mph WNW25.6 kmh WNW 24.4 mph39.3 kmh 29.41 in995.9 mb 0.00 in0.0 mm 0.00 in0.0 mm 0.05 in1.3 mm
01:30 PM 50.0°F10.0°C 40.2°F4.6°C 69% 11.4 mph WNW18.3 kmh WNW 24.4 mph39.3 kmh 29.41 in995.9 mb 0.00 in0.0 mm 0.00 in0.0 mm 0.05 in1.3 mm
01:35 PM 48.7°F9.3°C 40.1°F4.5°C 72% 11.4 mph W18.3 kmh W 24.4 mph39.3 kmh 29.41 in995.9 mb 0.00 in0.0 mm 0.00 in0.0 mm 0.05 in1.3 mm
01:40 PM 47.8°F8.8°C 40.6°F4.8°C 76% 6.9 mph WSW11.1 kmh WSW 18.3 mph29.5 kmh 29.42 in996.3 mb 0.00 in0.0 mm 0.00 in0.0 mm 0.05 in1.3 mm
01:45 PM 47.8°F8.8°C 41.0°F5.0°C 77% 6.0 mph SW9.7 kmh SW 15.2 mph24.5 kmh 29.42 in996.3 mb 0.00 in0.0 mm 0.00 in0.0 mm 0.05 in1.3 mm
01:50 PM 47.8°F8.8°C 41.3°F5.2°C 78% 6.0 mph SW9.7 kmh SW 15.2 mph24.5 kmh 29.42 in996.3 mb 0.00 in0.0 mm 0.00 in0.0 mm 0.05 in1.3 mm
01:55 PM 48.0°F8.9°C 41.5°F5.3°C 78% 9.2 mph S14.8 kmh S 15.9 mph25.6 kmh 29.43 in996.6 mb 0.00 in0.0 mm 0.00 in0.0 mm 0.05 in1.3 mm
02:00 PM 48.0°F8.9°C 41.2°F5.1°C 77% 6.0 mph S9.7 kmh S 16.8 mph27.0 kmh 29.43 in996.6 mb 0.00 in0.0 mm 0.00 in0.0 mm 0.05 in1.3 mm
02:05 PM 48.2°F9.0°C 40.7°F4.8°C 75% 9.8 mph SW15.8 kmh SW 16.8 mph27.0 kmh 29.43 in996.6 mb 0.00 in0.0 mm 0.00 in0.0 mm 0.05 in1.3 mm
02:10 PM 48.4°F9.1°C 41.2°F5.1°C 76% 5.4 mph SW8.7 kmh SW 16.8 mph27.0 kmh 29.43 in996.6 mb 0.00 in0.0 mm 0.00 in0.0 mm 0.05 in1.3 mm
02:15 PM 48.7°F9.3°C 41.2°F5.1°C 75% 6.9 mph W11.1 kmh W 16.8 mph27.0 kmh 29.44 in997.0 mb 0.00 in0.0 mm 0.00 in0.0 mm 0.05 in1.3 mm
02:20 PM 48.9°F9.4°C 41.4°F5.2°C 75% 5.4 mph WSW8.7 kmh WSW 15.9 mph25.6 kmh 29.44 in997.0 mb 0.00 in0.0 mm 0.00 in0.0 mm 0.05 in1.3 mm
02:25 PM 48.7°F9.3°C 40.8°F4.9°C 74% 6.0 mph SW9.7 kmh SW 15.9 mph25.6 kmh 29.45 in997.3 mb 0.00 in0.0 mm 0.00 in0.0 mm 0.05 in1.3 mm
02:30 PM 48.7°F9.3°C 40.8°F4.9°C 74% 6.0 mph W9.7 kmh W 15.9 mph25.6 kmh 29.45 in997.3 mb 0.00 in0.0 mm 0.00 in0.0 mm 0.05 in1.3 mm
02:35 PM 48.6°F9.2°C 40.7°F4.8°C 74% 4.5 mph SW7.2 kmh SW 12.1 mph19.5 kmh 29.45 in997.3 mb 0.00 in0.0 mm 0.00 in0.0 mm 0.05 in1.3 mm
02:40 PM 48.4°F9.1°C 39.4°F4.1°C 71% 8.3 mph SW13.4 kmh SW 14.5 mph23.3 kmh 29.45 in997.3 mb 0.00 in0.0 mm 0.00 in0.0 mm 0.05 in1.3 mm
02:45 PM 48.0°F8.9°C 39.1°F3.9°C 71% 6.0 mph SW9.7 kmh SW 14.5 mph23.3 kmh 29.45 in997.3 mb 0.00 in0.0 mm 0.00 in0.0 mm 0.05 in1.3 mm
02:50 PM 48.0°F8.9°C 39.1°F3.9°C 71% 4.5 mph SW7.2 kmh SW 13.6 mph21.9 kmh 29.46 in997.6 mb 0.00 in0.0 mm 0.00 in0.0 mm 0.05 in1.3 mm
02:55 PM 48.0°F8.9°C 39.4°F4.1°C 72% 5.4 mph SW8.7 kmh SW 13.6 mph21.9 kmh 29.45 in997.3 mb 0.00 in0.0 mm 0.00 in0.0 mm 0.05 in1.3 mm
03:00 PM 48.0°F8.9°C 39.4°F4.1°C 72% 6.9 mph SSW11.1 kmh SSW 11.4 mph18.3 kmh 29.46 in997.6 mb 0.00 in0.0 mm 0.00 in0.0 mm 0.05 in1.3 mm
03:05 PM 47.7°F8.7°C 38.7°F3.7°C 71% 8.3 mph SW13.4 kmh SW 13.6 mph21.9 kmh 29.45 in997.3 mb 0.00 in0.0 mm 0.00 in0.0 mm 0.05 in1.3 mm
03:10 PM 47.7°F8.7°C 39.1°F3.9°C 72% 6.0 mph SSW9.7 kmh SSW 13.6 mph21.9 kmh 29.45 in997.3 mb 0.00 in0.0 mm 0.00 in0.0 mm 0.05 in1.3 mm
03:15 PM 48.0°F8.9°C 39.4°F4.1°C 72% 4.5 mph SSW7.2 kmh SSW 13.6 mph21.9 kmh 29.45 in997.3 mb 0.00 in0.0 mm 0.00 in0.0 mm 0.05 in1.3 mm
03:20 PM 48.2°F9.0°C 39.2°F4.0°C 71% 8.3 mph SW13.4 kmh SW 12.1 mph19.5 kmh 29.46 in997.6 mb 0.00 in0.0 mm 0.00 in0.0 mm 0.05 in1.3 mm
03:25 PM 48.4°F9.1°C 39.4°F4.1°C 71% 2.2 mph WSW3.5 kmh WSW 12.1 mph19.5 kmh 29.46 in997.6 mb 0.00 in0.0 mm 0.00 in0.0 mm 0.05 in1.3 mm
03:30 PM 48.7°F9.3°C 39.4°F4.1°C 70% 5.4 mph W8.7 kmh W 12.1 mph19.5 kmh 29.46 in997.6 mb 0.00 in0.0 mm 0.00 in0.0 mm 0.05 in1.3 mm
03:35 PM 49.3°F9.6°C 39.9°F4.4°C 70% 6.0 mph W9.7 kmh W 12.1 mph19.5 kmh 29.46 in997.6 mb 0.00 in0.0 mm 0.00 in0.0 mm 0.05 in1.3 mm
03:40 PM 49.6°F9.8°C 40.3°F4.6°C 70% 6.9 mph WSW11.1 kmh WSW 13.6 mph21.9 kmh 29.46 in997.6 mb 0.00 in0.0 mm 0.00 in0.0 mm 0.05 in1.3 mm
03:45 PM 50.0°F10.0°C 39.5°F4.2°C 67% 2.2 mph SW3.5 kmh SW 13.6 mph21.9 kmh 29.46 in997.6 mb 0.00 in0.0 mm 0.00 in0.0 mm 0.05 in1.3 mm
03:50 PM 50.4°F10.2°C 39.8°F4.3°C 67% 6.0 mph W9.7 kmh W 10.7 mph17.2 kmh 29.45 in997.3 mb 0.00 in0.0 mm 0.00 in0.0 mm 0.05 in1.3 mm
03:55 PM 50.5°F10.3°C 39.6°F4.2°C 66% 6.0 mph W9.7 kmh W 10.7 mph17.2 kmh 29.45 in997.3 mb 0.00 in0.0 mm 0.00 in0.0 mm 0.05 in1.3 mm
04:00 PM 50.4°F10.2°C 39.1°F3.9°C 65% 3.1 mph SW5.0 kmh SW 10.7 mph17.2 kmh 29.45 in997.3 mb 0.00 in0.0 mm 0.00 in0.0 mm 0.05 in1.3 mm
04:05 PM 50.7°F10.4°C 39.8°F4.3°C 66% 6.9 mph SW11.1 kmh SW 10.7 mph17.2 kmh 29.45 in997.3 mb 0.00 in0.0 mm 0.00 in0.0 mm 0.05 in1.3 mm
04:10 PM 50.7°F10.4°C 39.4°F4.1°C 65% 3.8 mph NW6.1 kmh NW 9.8 mph15.8 kmh 29.45 in997.3 mb 0.00 in0.0 mm 0.00 in0.0 mm 0.05 in1.3 mm
04:15 PM 50.5°F10.3°C 39.2°F4.0°C 65% 5.4 mph WNW8.7 kmh WNW 9.8 mph15.8 kmh 29.45 in997.3 mb 0.00 in0.0 mm 0.00 in0.0 mm 0.05 in1.3 mm
04:20 PM 50.4°F10.2°C 39.1°F3.9°C 65% 6.9 mph SW11.1 kmh SW 13.0 mph20.9 kmh 29.45 in997.3 mb 0.00 in0.0 mm 0.00 in0.0 mm 0.05 in1.3 mm
04:25 PM 50.4°F10.2°C 38.7°F3.7°C 64% 3.1 mph S5.0 kmh S 13.0 mph20.9 kmh 29.45 in997.3 mb 0.00 in0.0 mm 0.00 in0.0 mm 0.05 in1.3 mm
04:30 PM 50.4°F10.2°C 38.7°F3.7°C 64% 3.8 mph SW6.1 kmh SW 9.2 mph14.8 kmh 29.45 in997.3 mb 0.00 in0.0 mm 0.00 in0.0 mm 0.05 in1.3 mm
04:35 PM 50.4°F10.2°C 38.7°F3.7°C 64% 3.1 mph SW5.0 kmh SW 9.2 mph14.8 kmh 29.44 in997.0 mb 0.00 in0.0 mm 0.00 in0.0 mm 0.05 in1.3 mm
04:40 PM 50.5°F10.3°C 38.8°F3.8°C 64% 3.8 mph SW6.1 kmh SW 9.2 mph14.8 kmh 29.45 in997.3 mb 0.00 in0.0 mm 0.00 in0.0 mm 0.05 in1.3 mm
04:45 PM 50.7°F10.4°C 39.0°F3.9°C 64% 3.8 mph WSW6.1 kmh WSW 7.6 mph12.2 kmh 29.44 in997.0 mb 0.00 in0.0 mm 0.00 in0.0 mm 0.05 in1.3 mm
04:50 PM 50.9°F10.5°C 38.8°F3.8°C 63% 3.8 mph WSW6.1 kmh WSW 9.2 mph14.8 kmh 29.44 in997.0 mb 0.00 in0.0 mm 0.00 in0.0 mm 0.05 in1.3 mm
04:55 PM 51.3°F10.7°C 39.1°F3.9°C 63% 6.0 mph W9.7 kmh W 11.4 mph18.3 kmh 29.44 in997.0 mb 0.00 in0.0 mm 0.00 in0.0 mm 0.05 in1.3 mm
05:00 PM 51.3°F10.7°C 39.1°F3.9°C 63% 3.8 mph WSW6.1 kmh WSW 13.0 mph20.9 kmh 29.45 in997.3 mb 0.00 in0.0 mm 0.00 in0.0 mm 0.05 in1.3 mm
05:05 PM 51.4°F10.8°C 39.3°F4.1°C 63% 4.5 mph SW7.2 kmh SW 13.0 mph20.9 kmh 29.45 in997.3 mb 0.00 in0.0 mm 0.00 in0.0 mm 0.05 in1.3 mm
05:10 PM 51.6°F10.9°C 39.8°F4.3°C 64% 1.6 mph SW2.6 kmh SW 9.2 mph14.8 kmh 29.45 in997.3 mb 0.00 in0.0 mm 0.00 in0.0 mm 0.05 in1.3 mm
05:15 PM 52.0°F11.1°C 39.8°F4.3°C 63% 4.5 mph S7.2 kmh S 9.2 mph14.8 kmh 29.45 in997.3 mb 0.00 in0.0 mm 0.00 in0.0 mm 0.05 in1.3 mm
05:20 PM 51.8°F11.0°C 39.2°F4.0°C 62% 2.2 mph SSW3.5 kmh SSW 10.7 mph17.2 kmh 29.45 in997.3 mb 0.00 in0.0 mm 0.00 in0.0 mm 0.05 in1.3 mm
05:25 PM 51.8°F11.0°C 39.6°F4.2°C 63% 6.9 mph SW11.1 kmh SW 10.7 mph17.2 kmh 29.45 in997.3 mb 0.00 in0.0 mm 0.00 in0.0 mm 0.05 in1.3 mm
05:30 PM 51.8°F11.0°C 39.6°F4.2°C 63% 5.4 mph SSW8.7 kmh SSW 9.8 mph15.8 kmh 29.45 in997.3 mb 0.00 in0.0 mm 0.00 in0.0 mm 0.05 in1.3 mm
05:35 PM 51.6°F10.9°C 39.4°F4.1°C 63% 3.1 mph SW5.0 kmh SW 9.8 mph15.8 kmh 29.45 in997.3 mb 0.00 in0.0 mm 0.00 in0.0 mm 0.05 in1.3 mm
05:40 PM 51.4°F10.8°C 39.3°F4.1°C 63% 2.2 mph SW3.5 kmh SW 10.7 mph17.2 kmh 29.45 in997.3 mb 0.00 in0.0 mm 0.00 in0.0 mm 0.05 in1.3 mm
05:45 PM 51.3°F10.7°C 39.1°F3.9°C 63% 4.5 mph SSW7.2 kmh SSW 11.4 mph18.3 kmh 29.45 in997.3 mb 0.00 in0.0 mm 0.00 in0.0 mm 0.05 in1.3 mm
05:50 PM 51.1°F10.6°C 39.3°F4.1°C 64% 3.8 mph SSW6.1 kmh SSW 11.4 mph18.3 kmh 29.45 in997.3 mb 0.00 in0.0 mm 0.00 in0.0 mm 0.05 in1.3 mm
05:55 PM 51.3°F10.7°C 39.5°F4.2°C 64% 2.2 mph WSW3.5 kmh WSW 9.8 mph15.8 kmh 29.45 in997.3 mb 0.00 in0.0 mm 0.00 in0.0 mm 0.05 in1.3 mm
06:00 PM 51.3°F10.7°C 39.5°F4.2°C 64% 3.8 mph SW6.1 kmh SW 8.3 mph13.4 kmh 29.45 in997.3 mb 0.00 in0.0 mm 0.00 in0.0 mm 0.05 in1.3 mm
06:05 PM 51.3°F10.7°C 39.1°F3.9°C 63% 4.5 mph WSW7.2 kmh WSW 9.2 mph14.8 kmh 29.45 in997.3 mb 0.00 in0.0 mm 0.00 in0.0 mm 0.05 in1.3 mm
06:10 PM 51.3°F10.7°C 39.1°F3.9°C 63% 5.4 mph WSW8.7 kmh WSW 12.1 mph19.5 kmh 29.45 in997.3 mb 0.00 in0.0 mm 0.00 in0.0 mm 0.05 in1.3 mm
06:15 PM 51.1°F10.6°C 38.9°F3.8°C 63% 4.5 mph WSW7.2 kmh WSW 12.1 mph19.5 kmh 29.45 in997.3 mb 0.00 in0.0 mm 0.00 in0.0 mm 0.05 in1.3 mm
06:20 PM 51.1°F10.6°C 38.9°F3.8°C 63% 4.5 mph W7.2 kmh W 8.3 mph13.4 kmh 29.45 in997.3 mb 0.00 in0.0 mm 0.00 in0.0 mm 0.05 in1.3 mm
06:25 PM 50.9°F10.5°C 38.8°F3.8°C 63% 4.5 mph WSW7.2 kmh WSW 9.2 mph14.8 kmh 29.45 in997.3 mb 0.00 in0.0 mm 0.00 in0.0 mm 0.05 in1.3 mm
06:30 PM 50.7°F10.4°C 38.2°F3.4°C 62% 5.4 mph SW8.7 kmh SW 9.2 mph14.8 kmh 29.45 in997.3 mb 0.00 in0.0 mm 0.00 in0.0 mm 0.05 in1.3 mm
06:35 PM 50.5°F10.3°C 38.0°F3.3°C 62% 4.5 mph SSW7.2 kmh SSW 9.8 mph15.8 kmh 29.46 in997.6 mb 0.00 in0.0 mm 0.00 in0.0 mm 0.05 in1.3 mm
06:40 PM 50.4°F10.2°C 38.7°F3.7°C 64% 8.3 mph SW13.4 kmh SW 16.8 mph27.0 kmh 29.46 in997.6 mb 0.00 in0.0 mm 0.00 in0.0 mm 0.05 in1.3 mm
06:45 PM 49.3°F9.6°C 39.6°F4.2°C 69% 8.3 mph WSW13.4 kmh WSW 17.4 mph28.0 kmh 29.47 in998.0 mb 0.00 in0.0 mm 0.00 in0.0 mm 0.05 in1.3 mm
06:50 PM 47.8°F8.8°C 40.3°F4.6°C 75% 5.4 mph W8.7 kmh W 17.4 mph28.0 kmh 29.46 in997.6 mb 0.00 in0.0 mm 0.00 in0.0 mm 0.05 in1.3 mm
06:55 PM 47.1°F8.4°C 40.0°F4.4°C 76% 3.8 mph NW6.1 kmh NW 17.4 mph28.0 kmh 29.47 in998.0 mb 0.00 in0.0 mm 0.00 in0.0 mm 0.05 in1.3 mm
07:00 PM 46.9°F8.3°C 40.4°F4.7°C 78% 5.4 mph NW8.7 kmh NW 13.0 mph20.9 kmh 29.47 in998.0 mb 0.00 in0.0 mm 0.00 in0.0 mm 0.05 in1.3 mm
07:05 PM 46.9°F8.3°C 40.4°F4.7°C 78% 3.1 mph NW5.0 kmh NW 11.4 mph18.3 kmh 29.47 in998.0 mb 0.00 in0.0 mm 0.00 in0.0 mm 0.05 in1.3 mm
07:10 PM 46.8°F8.2°C 40.3°F4.6°C 78% 3.1 mph NW5.0 kmh NW 11.4 mph18.3 kmh 29.47 in998.0 mb 0.00 in0.0 mm 0.00 in0.0 mm 0.05 in1.3 mm
07:15 PM 47.1°F8.4°C 40.6°F4.8°C 78% 3.1 mph WNW5.0 kmh WNW 9.2 mph14.8 kmh 29.47 in998.0 mb 0.00 in0.0 mm 0.00 in0.0 mm 0.05 in1.3 mm
07:20 PM 47.5°F8.6°C 41.0°F5.0°C 78% 5.4 mph WSW8.7 kmh WSW 8.3 mph13.4 kmh 29.47 in998.0 mb 0.00 in0.0 mm 0.00 in0.0 mm 0.05 in1.3 mm
07:25 PM 47.5°F8.6°C 40.3°F4.6°C 76% 2.2 mph SW3.5 kmh SW 8.3 mph13.4 kmh 29.48 in998.3 mb 0.00 in0.0 mm 0.00 in0.0 mm 0.05 in1.3 mm
07:30 PM 47.3°F8.5°C 40.1°F4.5°C 76% 1.6 mph SW2.6 kmh SW 8.3 mph13.4 kmh 29.47 in998.0 mb 0.00 in0.0 mm 0.00 in0.0 mm 0.05 in1.3 mm
07:35 PM 47.1°F8.4°C 40.0°F4.4°C 76% 2.2 mph SW3.5 kmh SW 4.5 mph7.2 kmh 29.48 in998.3 mb 0.00 in0.0 mm 0.00 in0.0 mm 0.05 in1.3 mm
07:40 PM 46.9°F8.3°C 40.1°F4.5°C 77% 4.5 mph S7.2 kmh S 5.4 mph8.7 kmh 29.47 in998.0 mb 0.00 in0.0 mm 0.00 in0.0 mm 0.05 in1.3 mm
07:45 PM 46.9°F8.3°C 40.4°F4.7°C 78% 0.7 mph S1.1 kmh S 5.4 mph8.7 kmh 29.48 in998.3 mb 0.00 in0.0 mm 0.00 in0.0 mm 0.05 in1.3 mm
07:50 PM 46.9°F8.3°C 40.4°F4.7°C 78% 3.1 mph SW5.0 kmh SW 5.4 mph8.7 kmh 29.48 in998.3 mb 0.00 in0.0 mm 0.00 in0.0 mm 0.05 in1.3 mm
07:55 PM 46.8°F8.2°C 39.6°F4.2°C 76% 3.1 mph SW5.0 kmh SW 4.5 mph7.2 kmh 29.48 in998.3 mb 0.00 in0.0 mm 0.00 in0.0 mm 0.05 in1.3 mm
08:00 PM 46.6°F8.1°C 39.4°F4.1°C 76% 1.6 mph S2.6 kmh S 4.5 mph7.2 kmh 29.49 in998.6 mb 0.00 in0.0 mm 0.00 in0.0 mm 0.05 in1.3 mm
08:05 PM 46.4°F8.0°C 39.3°F4.1°C 76% 0.7 mph S1.1 kmh S 4.5 mph7.2 kmh 29.48 in998.3 mb 0.00 in0.0 mm 0.00 in0.0 mm 0.05 in1.3 mm
08:10 PM 46.2°F7.9°C 39.1°F3.9°C 76% 0.7 mph SSW1.1 kmh SSW 3.1 mph5.0 kmh 29.49 in998.6 mb 0.00 in0.0 mm 0.00 in0.0 mm 0.05 in1.3 mm
08:15 PM 46.0°F7.8°C 38.9°F3.8°C 76% Calm Calm 2.2 mph3.5 kmh 29.49 in998.6 mb 0.00 in0.0 mm 0.00 in0.0 mm 0.05 in1.3 mm
08:20 PM 45.7°F7.6°C 38.6°F3.7°C 76% Calm Calm 2.2 mph3.5 kmh 29.49 in998.6 mb 0.00 in0.0 mm 0.00 in0.0 mm 0.05 in1.3 mm
08:25 PM 45.5°F7.5°C 38.4°F3.6°C 76% 0.7 mph SW1.1 kmh SW 2.2 mph3.5 kmh 29.49 in998.6 mb 0.00 in0.0 mm 0.00 in0.0 mm 0.05 in1.3 mm
08:30 PM 45.3°F7.4°C 38.2°F3.4°C 76% 0.7 mph WSW1.1 kmh WSW 2.2 mph3.5 kmh 29.49 in998.6 mb 0.00 in0.0 mm 0.00 in0.0 mm 0.05 in1.3 mm
08:35 PM 45.0°F7.2°C 38.2°F3.4°C 77% 0.7 mph WNW1.1 kmh WNW 1.6 mph2.6 kmh 29.49 in998.6 mb 0.00 in0.0 mm 0.00 in0.0 mm 0.05 in1.3 mm
08:40 PM 44.4°F6.9°C 38.6°F3.7°C 80% 0.7 mph NNW1.1 kmh NNW 2.2 mph3.5 kmh 29.49 in998.6 mb 0.00 in0.0 mm 0.00 in0.0 mm 0.05 in1.3 mm
08:45 PM 44.1°F6.7°C 38.9°F3.8°C 82% 1.6 mph N2.6 kmh N 2.2 mph3.5 kmh 29.49 in998.6 mb 0.00 in0.0 mm 0.00 in0.0 mm 0.05 in1.3 mm
08:50 PM 43.3°F6.3°C 38.5°F3.6°C 83% 2.2 mph N3.5 kmh N 3.1 mph5.0 kmh 29.49 in998.6 mb 0.00 in0.0 mm 0.00 in0.0 mm 0.05 in1.3 mm
08:55 PM 42.8°F6.0°C 38.0°F3.3°C 83% 3.1 mph N5.0 kmh N 4.5 mph7.2 kmh 29.50 in999.0 mb 0.00 in0.0 mm 0.00 in0.0 mm 0.05 in1.3 mm
09:00 PM 42.4°F5.8°C 38.3°F3.5°C 85% 2.2 mph N3.5 kmh N 4.5 mph7.2 kmh 29.50 in999.0 mb 0.00 in0.0 mm 0.00 in0.0 mm 0.05 in1.3 mm
09:05 PM 42.4°F5.8°C 38.3°F3.5°C 85% 2.2 mph N3.5 kmh N 4.5 mph7.2 kmh 29.50 in999.0 mb 0.00 in0.0 mm 0.00 in0.0 mm 0.05 in1.3 mm
09:10 PM 42.1°F5.6°C 38.5°F3.6°C 87% Calm Calm 3.1 mph5.0 kmh 29.50 in999.0 mb 0.00 in0.0 mm 0.00 in0.0 mm 0.05 in1.3 mm
09:15 PM 42.1°F5.6°C 38.8°F3.8°C 88% Calm Calm 3.1 mph5.0 kmh 29.50 in999.0 mb 0.00 in0.0 mm 0.00 in0.0 mm 0.05 in1.3 mm
09:20 PM 42.1°F5.6°C 39.4°F4.1°C 90% Calm Calm 1.6 mph2.6 kmh 29.50 in999.0 mb 0.00 in0.0 mm 0.00 in0.0 mm 0.05 in1.3 mm
09:25 PM 42.3°F5.7°C 39.5°F4.2°C 90% Calm Calm -- 29.50 in999.0 mb 0.00 in0.0 mm 0.00 in0.0 mm 0.05 in1.3 mm
09:30 PM 42.3°F5.7°C 39.8°F4.3°C 91% 1.6 mph N2.6 kmh N 3.1 mph5.0 kmh 29.51 in999.3 mb 0.00 in0.0 mm 0.00 in0.0 mm 0.05 in1.3 mm
09:35 PM 42.4°F5.8°C 40.3°F4.6°C 92% 1.6 mph N2.6 kmh N 3.1 mph5.0 kmh 29.51 in999.3 mb 0.00 in0.0 mm 0.00 in0.0 mm 0.05 in1.3 mm
09:40 PM 42.4°F5.8°C 40.3°F4.6°C 92% Calm Calm 2.2 mph3.5 kmh 29.51 in999.3 mb 0.00 in0.0 mm 0.00 in0.0 mm 0.05 in1.3 mm
09:45 PM 42.6°F5.9°C 40.7°F4.8°C 93% 3.1 mph E5.0 kmh E 3.1 mph5.0 kmh 29.50 in999.0 mb 0.00 in0.0 mm 0.00 in0.0 mm 0.05 in1.3 mm
09:50 PM 42.8°F6.0°C 40.6°F4.8°C 92% 1.6 mph E2.6 kmh E 3.8 mph6.1 kmh 29.51 in999.3 mb 0.00 in0.0 mm 0.00 in0.0 mm 0.05 in1.3 mm
09:55 PM 43.0°F6.1°C 40.8°F4.9°C 92% 0.7 mph E1.1 kmh E 3.8 mph6.1 kmh 29.51 in999.3 mb 0.00 in0.0 mm 0.00 in0.0 mm 0.05 in1.3 mm
10:00 PM 43.0°F6.1°C 40.8°F4.9°C 92% Calm Calm 2.2 mph3.5 kmh 29.51 in999.3 mb 0.00 in0.0 mm 0.00 in0.0 mm 0.05 in1.3 mm
10:05 PM 43.0°F6.1°C 40.8°F4.9°C 92% Calm Calm 3.1 mph5.0 kmh 29.52 in999.7 mb 0.00 in0.0 mm 0.00 in0.0 mm 0.05 in1.3 mm
10:10 PM 43.2°F6.2°C 41.0°F5.0°C 92% 1.6 mph NW2.6 kmh NW 3.1 mph5.0 kmh 29.52 in999.7 mb 0.00 in0.0 mm 0.00 in0.0 mm 0.05 in1.3 mm
10:15 PM 43.3°F6.3°C 41.5°F5.3°C 93% 1.6 mph W2.6 kmh W 3.1 mph5.0 kmh 29.52 in999.7 mb 0.00 in0.0 mm 0.00 in0.0 mm 0.05 in1.3 mm
10:20 PM 43.3°F6.3°C 41.5°F5.3°C 93% 1.6 mph W2.6 kmh W 3.1 mph5.0 kmh 29.52 in999.7 mb 0.00 in0.0 mm 0.00 in0.0 mm 0.05 in1.3 mm
10:25 PM 43.5°F6.4°C 41.4°F5.2°C 92% 1.6 mph W2.6 kmh W 4.5 mph7.2 kmh 29.52 in999.7 mb 0.00 in0.0 mm 0.00 in0.0 mm 0.05 in1.3 mm
10:30 PM 43.7°F6.5°C 41.5°F5.3°C 92% 3.8 mph W6.1 kmh W 5.4 mph8.7 kmh 29.52 in999.7 mb 0.00 in0.0 mm 0.00 in0.0 mm 0.05 in1.3 mm
10:35 PM 43.7°F6.5°C 41.5°F5.3°C 92% 0.7 mph W1.1 kmh W 5.4 mph8.7 kmh 29.52 in999.7 mb 0.00 in0.0 mm 0.00 in0.0 mm 0.05 in1.3 mm
10:40 PM 43.7°F6.5°C 41.5°F5.3°C 92% 0.7 mph WSW1.1 kmh WSW 4.5 mph7.2 kmh 29.52 in999.7 mb 0.00 in0.0 mm 0.00 in0.0 mm 0.05 in1.3 mm
10:45 PM 43.5°F6.4°C 41.4°F5.2°C 92% 2.2 mph W3.5 kmh W 3.1 mph5.0 kmh 29.52 in999.7 mb 0.00 in0.0 mm 0.00 in0.0 mm 0.05 in1.3 mm
10:50 PM 43.5°F6.4°C 41.4°F5.2°C 92% Calm Calm 3.1 mph5.0 kmh 29.52 in999.7 mb 0.00 in0.0 mm 0.00 in0.0 mm 0.05 in1.3 mm
10:55 PM 43.3°F6.3°C 41.2°F5.1°C 92% 1.6 mph WNW2.6 kmh WNW 3.1 mph5.0 kmh 29.52 in999.7 mb 0.00 in0.0 mm 0.00 in0.0 mm 0.05 in1.3 mm
11:00 PM 43.3°F6.3°C 41.2°F5.1°C 92% 2.2 mph NW3.5 kmh NW 3.1 mph5.0 kmh 29.52 in999.7 mb 0.00 in0.0 mm 0.00 in0.0 mm 0.05 in1.3 mm
11:05 PM 43.3°F6.3°C 41.2°F5.1°C 92% 2.2 mph N3.5 kmh N 3.1 mph5.0 kmh 29.52 in999.7 mb 0.00 in0.0 mm 0.00 in0.0 mm 0.05 in1.3 mm
11:10 PM 43.0°F6.1°C 41.1°F5.1°C 93% 1.6 mph N2.6 kmh N 4.5 mph7.2 kmh 29.52 in999.7 mb 0.00 in0.0 mm 0.00 in0.0 mm 0.05 in1.3 mm
11:15 PM 42.8°F6.0°C 40.9°F4.9°C 93% Calm Calm 4.5 mph7.2 kmh 29.52 in999.7 mb 0.00 in0.0 mm 0.00 in0.0 mm 0.05 in1.3 mm
11:20 PM 42.8°F6.0°C 40.9°F4.9°C 93% 2.2 mph WNW3.5 kmh WNW 3.8 mph6.1 kmh 29.52 in999.7 mb 0.00 in0.0 mm 0.00 in0.0 mm 0.05 in1.3 mm
11:25 PM 42.8°F6.0°C 40.9°F4.9°C 93% 1.6 mph WSW2.6 kmh WSW 3.8 mph6.1 kmh 29.52 in999.7 mb 0.00 in0.0 mm 0.00 in0.0 mm 0.05 in1.3 mm
11:30 PM 42.8°F6.0°C 40.9°F4.9°C 93% 1.6 mph SW2.6 kmh SW 3.8 mph6.1 kmh 29.52 in999.7 mb 0.00 in0.0 mm 0.00 in0.0 mm 0.05 in1.3 mm
11:35 PM 43.0°F6.1°C 41.1°F5.1°C 93% 1.6 mph SW2.6 kmh SW 3.1 mph5.0 kmh 29.52 in999.7 mb 0.00 in0.0 mm 0.00 in0.0 mm 0.05 in1.3 mm
11:40 PM 43.2°F6.2°C 41.0°F5.0°C 92% 0.7 mph WSW1.1 kmh WSW 3.1 mph5.0 kmh 29.52 in999.7 mb 0.00 in0.0 mm 0.00 in0.0 mm 0.05 in1.3 mm
11:45 PM 43.0°F6.1°C 40.8°F4.9°C 92% 1.6 mph WNW2.6 kmh WNW 2.2 mph3.5 kmh 29.52 in999.7 mb 0.00 in0.0 mm 0.00 in0.0 mm 0.05 in1.3 mm
11:50 PM 42.8°F6.0°C 40.6°F4.8°C 92% Calm Calm 2.2 mph3.5 kmh 29.52 in999.7 mb 0.00 in0.0 mm 0.00 in0.0 mm 0.05 in1.3 mm
11:55 PM 42.4°F5.8°C 40.6°F4.8°C 93% 0.7 mph NNW1.1 kmh NNW 2.2 mph3.5 kmh 29.52 in999.7 mb 0.00 in0.0 mm 0.00 in0.0 mm 0.05 in1.3 mm